Terminal Aerodrome Forecast
Issued by NWS Jackson, KY

Home | Current Version | Previous Version | Text Only | Print | Product List | Glossary On
Versions: 1 2 3 4 5 6 7 8 9 10 11 12 13 14 15 16 17 18
471
FTUS43 KJKL 240520
TAFLOZ
TAF
KLOZ 240520Z 2406/2506 VRB03KT P6SM BKN250 WS020/20040KT
     FM241400 19008KT P6SM BKN050
     FM241800 20010G15KT P6SM SCT050 BKN250
     FM250100 19006KT P6SM BKN250=

USA.gov is the U.S. government's official web portal to all federal, state and local government web resources and services.